createdAt,value
2019-01-09T00:00:53.879Z,20.37
2019-01-09T00:03:57.322Z,20.38
2019-01-09T00:07:00.758Z,20.37
2019-01-09T00:10:04.265Z,20.36
2019-01-09T00:13:07.772Z,20.34
2019-01-09T00:16:11.316Z,20.32
2019-01-09T00:19:14.823Z,20.31
2019-01-09T00:22:18.268Z,20.30
2019-01-09T00:25:21.821Z,20.28
2019-01-09T00:28:25.332Z,20.29
2019-01-09T00:31:28.899Z,20.29
2019-01-09T00:34:32.537Z,20.27
2019-01-09T00:37:38.080Z,20.25
2019-01-09T00:40:41.616Z,20.25
2019-01-09T00:43:46.108Z,20.23
2019-01-09T00:46:49.604Z,20.24
2019-01-09T00:49:53.109Z,20.24
2019-01-09T00:52:56.607Z,20.24
2019-01-09T00:56:00.108Z,20.25
2019-01-09T00:59:03.625Z,20.26
2019-01-09T01:02:39.574Z,20.26
2019-01-09T01:06:20.715Z,20.24
2019-01-09T01:10:11.175Z,20.25
2019-01-09T01:13:47.628Z,20.25
2019-01-09T01:17:09.042Z,20.24
2019-01-09T01:20:46.871Z,20.25
2019-01-09T01:24:11.362Z,20.25
2019-01-09T01:27:40.359Z,20.24
2019-01-09T01:31:27.362Z,20.24
2019-01-09T01:34:56.653Z,20.22
2019-01-09T01:38:40.653Z,20.21
2019-01-09T01:42:01.165Z,20.22
2019-01-09T01:45:23.984Z,20.16
2019-01-09T01:48:51.953Z,20.18
2019-01-09T01:52:44.257Z,20.18
2019-01-09T01:56:37.866Z,20.15
2019-01-09T01:59:50.274Z,20.12
2019-01-09T02:03:16.612Z,20.13
2019-01-09T02:06:47.852Z,20.15
2019-01-09T02:10:14.211Z,20.12
2019-01-09T02:13:32.649Z,20.14
2019-01-09T02:17:13.736Z,20.13
2019-01-09T02:21:08.724Z,20.15
2019-01-09T02:24:50.660Z,20.12
2019-01-09T02:28:31.234Z,20.15
2019-01-09T02:32:07.577Z,20.13
2019-01-09T02:35:11.187Z,20.15
2019-01-09T02:38:14.788Z,20.13
2019-01-09T02:41:18.238Z,20.13
2019-01-09T02:44:21.690Z,20.14
2019-01-09T02:47:25.200Z,20.14
2019-01-09T02:50:28.694Z,20.15
2019-01-09T02:53:32.137Z,20.12
2019-01-09T02:56:35.593Z,20.14
2019-01-09T02:59:39.092Z,20.13
2019-01-09T03:02:42.603Z,20.14
2019-01-09T03:05:46.098Z,20.15
2019-01-09T03:08:49.799Z,20.14
2019-01-09T03:11:53.431Z,20.12
2019-01-09T03:14:56.930Z,20.13
2019-01-09T03:18:00.402Z,20.11
2019-01-09T03:21:04.934Z,20.11
2019-01-09T03:24:08.435Z,20.09
2019-01-09T03:27:11.924Z,20.10
2019-01-09T03:30:15.446Z,20.08
2019-01-09T03:33:18.949Z,20.07
2019-01-09T03:36:22.442Z,20.06
2019-01-09T03:39:25.875Z,20.06
2019-01-09T03:42:29.310Z,20.07
2019-01-09T03:45:32.929Z,20.06
2019-01-09T03:48:36.452Z,20.06
2019-01-09T03:51:39.935Z,20.06
2019-01-09T03:54:43.436Z,20.05
2019-01-09T03:57:46.968Z,20.06
2019-01-09T04:00:50.480Z,20.07
2019-01-09T04:03:55.394Z,20.06
2019-01-09T04:06:59.022Z,20.05
2019-01-09T04:10:02.593Z,20.07
2019-01-09T04:13:07.115Z,20.07
2019-01-09T04:16:16.346Z,20.07
2019-01-09T04:19:19.849Z,20.07
2019-01-09T04:22:23.331Z,20.09
2019-01-09T04:25:26.851Z,20.08
2019-01-09T04:28:30.334Z,20.06
2019-01-09T04:31:34.906Z,20.05
2019-01-09T04:34:38.380Z,20.06
2019-01-09T04:37:41.886Z,20.03
2019-01-09T04:40:47.553Z,20.05
2019-01-09T04:43:50.704Z,20.04
2019-01-09T04:46:54.140Z,20.04
2019-01-09T04:49:57.716Z,20.03
2019-01-09T04:53:02.237Z,20.03
2019-01-09T04:56:05.736Z,20.02
2019-01-09T04:59:11.305Z,20.02
2019-01-09T05:02:14.802Z,20.01
2019-01-09T05:05:18.360Z,20.01
2019-01-09T05:08:21.999Z,20.01
2019-01-09T05:11:25.445Z,20.00
2019-01-09T05:14:28.992Z,20.00
2019-01-09T05:17:32.505Z,20.01
2019-01-09T05:20:36.088Z,20.02
2019-01-09T05:23:39.703Z,20.00
2019-01-09T05:26:43.210Z,20.01
2019-01-09T05:29:46.718Z,20.01
2019-01-09T05:32:50.145Z,20.03
2019-01-09T05:35:53.609Z,20.02
2019-01-09T05:38:57.217Z,20.02
2019-01-09T05:42:00.812Z,20.01
2019-01-09T05:45:04.416Z,20.01
2019-01-09T05:48:07.918Z,20.02
2019-01-09T05:51:12.452Z,20.03
2019-01-09T05:54:15.945Z,20.02
2019-01-09T05:57:19.476Z,20.02
2019-01-09T06:00:22.950Z,20.02
2019-01-09T06:03:26.458Z,20.03
2019-01-09T06:06:30.996Z,20.01
2019-01-09T06:09:35.498Z,20.02
2019-01-09T06:12:38.993Z,20.02
2019-01-09T06:15:43.539Z,19.99
2019-01-09T06:18:46.993Z,19.99
2019-01-09T06:21:50.524Z,20.00
2019-01-09T06:24:55.277Z,19.99
2019-01-09T06:27:58.757Z,19.97
2019-01-09T06:31:02.277Z,19.98
2019-01-09T06:34:05.765Z,19.98
2019-01-09T06:37:09.254Z,19.97
2019-01-09T06:40:14.830Z,19.98
2019-01-09T06:43:18.268Z,19.98
2019-01-09T06:46:25.089Z,19.96
2019-01-09T06:49:29.634Z,19.98
2019-01-09T06:52:33.173Z,19.99
2019-01-09T06:55:36.839Z,19.98
2019-01-09T06:58:40.248Z,19.98
2019-01-09T07:01:43.694Z,19.98
2019-01-09T07:04:47.130Z,19.97
2019-01-09T07:07:51.631Z,19.98
2019-01-09T07:10:55.147Z,19.99
2019-01-09T07:13:58.658Z,19.98
2019-01-09T07:17:02.150Z,20.00
2019-01-09T07:20:05.752Z,19.98
2019-01-09T07:23:09.237Z,19.99
2019-01-09T07:26:12.845Z,19.99
2019-01-09T07:29:16.353Z,19.99
2019-01-09T07:32:19.858Z,20.01
2019-01-09T07:35:23.276Z,19.98
2019-01-09T07:38:26.725Z,19.96
2019-01-09T07:41:30.352Z,19.97
2019-01-09T07:44:35.084Z,19.98
2019-01-09T07:47:38.584Z,19.97
2019-01-09T07:50:42.091Z,19.97
2019-01-09T07:53:46.647Z,19.96
2019-01-09T07:56:51.712Z,19.94
2019-01-09T07:59:55.241Z,19.94
2019-01-09T08:02:58.744Z,19.94
2019-01-09T08:06:02.182Z,19.92
2019-01-09T08:09:06.812Z,19.93
2019-01-09T08:12:10.276Z,19.94
2019-01-09T08:15:13.769Z,19.93
2019-01-09T08:18:17.278Z,19.94
2019-01-09T08:21:22.824Z,19.94
2019-01-09T08:24:27.362Z,19.96
2019-01-09T08:27:30.853Z,19.96
2019-01-09T08:30:35.374Z,19.97
2019-01-09T08:33:38.881Z,19.96
2019-01-09T08:36:42.378Z,19.96
2019-01-09T08:39:45.978Z,19.97
2019-01-09T08:42:50.641Z,19.99
2019-01-09T08:45:54.102Z,19.99
2019-01-09T08:48:57.611Z,19.99
2019-01-09T08:52:01.139Z,19.98
2019-01-09T08:55:05.128Z,20.00
2019-01-09T08:58:08.753Z,19.98
2019-01-09T09:01:12.249Z,19.98
2019-01-09T09:04:15.721Z,19.98
2019-01-09T09:07:20.258Z,19.98
2019-01-09T09:10:23.762Z,19.98
2019-01-09T09:13:38.321Z,19.98
2019-01-09T09:16:42.890Z,19.96
2019-01-09T09:19:46.478Z,19.98
2019-01-09T09:22:50.046Z,19.95
2019-01-09T09:25:53.544Z,19.93
2019-01-09T09:29:03.857Z,19.94
2019-01-09T09:32:13.546Z,19.94
2019-01-09T09:35:16.932Z,19.92
2019-01-09T09:38:21.003Z,19.93
2019-01-09T09:41:24.572Z,19.92
2019-01-09T09:44:28.075Z,19.92
2019-01-09T09:47:31.570Z,19.94
2019-01-09T09:50:35.148Z,19.92
2019-01-09T09:53:38.784Z,19.94
2019-01-09T09:56:42.404Z,19.93
2019-01-09T09:59:46.023Z,19.93
2019-01-09T10:02:49.492Z,19.94
2019-01-09T10:05:53.347Z,19.94
2019-01-09T10:08:56.929Z,19.94
2019-01-09T10:12:00.393Z,19.95
2019-01-09T10:15:05.669Z,19.95
2019-01-09T10:18:09.328Z,19.95
2019-01-09T10:21:12.935Z,19.95
2019-01-09T10:24:16.443Z,19.95
2019-01-09T10:27:20.045Z,19.97
2019-01-09T10:30:23.651Z,19.95
2019-01-09T10:33:27.148Z,19.95
2019-01-09T10:36:30.646Z,19.93
2019-01-09T10:39:36.206Z,19.92
2019-01-09T10:42:39.723Z,19.92
2019-01-09T10:45:43.219Z,19.93
2019-01-09T10:48:47.736Z,19.92
2019-01-09T10:51:52.262Z,19.92
2019-01-09T10:54:55.793Z,19.94
2019-01-09T10:57:59.271Z,19.92
2019-01-09T11:01:02.777Z,19.92
2019-01-09T11:04:06.260Z,19.92
2019-01-09T11:07:09.759Z,19.92
2019-01-09T11:10:14.327Z,19.94
2019-01-09T11:13:17.755Z,19.93
2019-01-09T11:16:21.293Z,19.94
2019-01-09T11:19:24.781Z,19.92
2019-01-09T11:22:29.326Z,19.93
2019-01-09T11:25:33.866Z,19.93
2019-01-09T11:28:37.339Z,19.93
2019-01-09T11:31:40.789Z,19.94
2019-01-09T11:34:45.369Z,19.95
2019-01-09T11:37:48.873Z,19.98
2019-01-09T11:40:53.390Z,20.00
2019-01-09T11:43:56.928Z,20.02
2019-01-09T11:47:00.384Z,20.04
2019-01-09T11:50:06.053Z,20.03
2019-01-09T11:53:09.740Z,20.02
2019-01-09T11:56:13.460Z,20.05
2019-01-09T11:59:17.192Z,20.04
2019-01-09T12:02:22.120Z,20.05
2019-01-09T12:05:25.910Z,20.06
2019-01-09T12:08:29.522Z,20.07
2019-01-09T12:11:33.105Z,20.07
2019-01-09T12:14:36.556Z,20.08
2019-01-09T12:17:40.141Z,20.09
2019-01-09T12:20:43.640Z,20.08
2019-01-09T12:23:50.221Z,20.09
2019-01-09T12:26:54.724Z,20.09
2019-01-09T12:29:58.338Z,20.09
2019-01-09T12:33:02.052Z,20.09
2019-01-09T12:36:05.733Z,20.11
2019-01-09T12:39:13.306Z,20.11
2019-01-09T12:42:14.697Z,20.10
2019-01-09T12:45:18.206Z,20.10
2019-01-09T12:48:21.705Z,20.11
2019-01-09T12:51:25.292Z,20.12
2019-01-09T12:54:28.954Z,20.14
2019-01-09T12:57:32.405Z,20.14
2019-01-09T13:00:35.970Z,20.16
2019-01-09T13:03:39.614Z,20.16
2019-01-09T13:06:43.206Z,20.17
2019-01-09T13:09:46.937Z,20.18
2019-01-09T13:12:52.641Z,20.20
2019-01-09T13:15:55.853Z,20.22
2019-01-09T13:19:00.403Z,20.20
2019-01-09T13:22:03.868Z,20.22
2019-01-09T13:25:08.212Z,20.20
2019-01-09T13:28:12.158Z,20.22
2019-01-09T13:31:16.633Z,20.22
2019-01-09T13:34:20.257Z,20.21
2019-01-09T13:37:23.926Z,20.22
2019-01-09T13:40:27.676Z,20.21
2019-01-09T13:43:31.282Z,20.23
2019-01-09T13:46:34.858Z,20.25
2019-01-09T13:49:39.492Z,20.24
2019-01-09T13:52:43.077Z,20.23
2019-01-09T13:55:46.779Z,20.25
2019-01-09T13:58:50.455Z,20.24
2019-01-09T14:01:53.920Z,20.25
2019-01-09T14:04:57.487Z,20.24
2019-01-09T14:08:01.222Z,20.25
2019-01-09T14:11:04.829Z,20.24
2019-01-09T14:14:08.342Z,20.25
2019-01-09T14:17:11.875Z,20.25
2019-01-09T14:20:15.517Z,20.24
2019-01-09T14:23:19.132Z,20.23
2019-01-09T14:26:24.375Z,20.23
2019-01-09T14:29:28.982Z,20.23
2019-01-09T14:32:32.710Z,20.24
2019-01-09T14:35:36.422Z,20.23
2019-01-09T14:38:40.137Z,20.25
2019-01-09T14:41:43.737Z,20.26
2019-01-09T14:44:47.262Z,20.24
2019-01-09T14:47:50.718Z,20.25
2019-01-09T14:50:55.361Z,20.24
2019-01-09T14:53:59.029Z,20.24
2019-01-09T14:57:02.682Z,20.23
2019-01-09T15:00:10.231Z,20.24
2019-01-09T15:03:13.760Z,20.24
2019-01-09T15:06:17.276Z,20.23
2019-01-09T15:09:20.881Z,20.22
2019-01-09T15:12:24.458Z,20.23
2019-01-09T15:15:28.123Z,20.24
2019-01-09T15:18:32.698Z,20.23
2019-01-09T15:21:37.227Z,20.24
2019-01-09T15:24:40.779Z,20.25
2019-01-09T15:27:44.229Z,20.25
2019-01-09T15:30:47.969Z,20.26
2019-01-09T15:33:51.544Z,20.26
2019-01-09T15:36:55.136Z,20.27
2019-01-09T15:40:05.676Z,20.27
2019-01-09T15:43:04.094Z,20.28
2019-01-09T15:46:07.722Z,20.29
2019-01-09T15:49:11.223Z,20.28
2019-01-09T15:52:14.691Z,20.29
2019-01-09T15:55:18.329Z,20.29
2019-01-09T15:58:22.005Z,20.29
2019-01-09T16:01:25.813Z,20.33
2019-01-09T16:04:29.408Z,20.32
2019-01-09T16:07:33.041Z,20.30
2019-01-09T16:10:36.549Z,20.29
2019-01-09T16:13:40.024Z,20.27
2019-01-09T16:16:43.502Z,20.25
2019-01-09T16:19:47.143Z,20.26
2019-01-09T16:22:50.735Z,20.24
2019-01-09T16:25:54.240Z,20.24
2019-01-09T16:28:58.756Z,20.24
2019-01-09T16:32:02.257Z,20.24
2019-01-09T16:35:06.086Z,20.25
2019-01-09T16:38:09.673Z,20.25
2019-01-09T16:41:13.266Z,20.22
2019-01-09T16:44:16.937Z,20.23
2019-01-09T16:47:20.599Z,20.24
2019-01-09T16:50:24.291Z,20.27
2019-01-09T16:53:27.833Z,20.26
2019-01-09T16:56:31.302Z,20.28
2019-01-09T16:59:34.791Z,20.29
2019-01-09T17:02:38.291Z,20.31
2019-01-09T17:05:41.873Z,20.31
2019-01-09T17:08:45.602Z,20.32
2019-01-09T17:11:50.440Z,20.31
2019-01-09T17:14:53.929Z,20.33
2019-01-09T17:17:57.482Z,20.34
2019-01-09T17:21:00.952Z,20.36
2019-01-09T17:24:04.460Z,20.40
2019-01-09T17:27:07.966Z,20.41
2019-01-09T17:30:20.164Z,20.42
2019-01-09T17:33:23.741Z,20.41
2019-01-09T17:36:27.187Z,20.43
2019-01-09T17:39:31.784Z,20.42
2019-01-09T17:42:35.975Z,20.46
2019-01-09T17:45:39.831Z,20.44
2019-01-09T17:48:44.837Z,20.45
2019-01-09T17:51:48.477Z,20.44
2019-01-09T17:54:52.952Z,20.46
2019-01-09T17:57:56.897Z,20.47
2019-01-09T18:01:01.467Z,20.47
2019-01-09T18:04:05.125Z,20.48
2019-01-09T18:07:09.650Z,20.48
2019-01-09T18:10:16.218Z,20.47
2019-01-09T18:13:19.718Z,20.47
2019-01-09T18:16:23.342Z,20.50
2019-01-09T18:19:26.920Z,20.51
2019-01-09T18:22:30.485Z,20.51
2019-01-09T18:25:34.124Z,20.53
2019-01-09T18:28:37.630Z,20.54
2019-01-09T18:32:18.609Z,20.54
2019-01-09T18:35:30.080Z,20.56
2019-01-09T18:38:45.098Z,20.57
2019-01-09T18:42:21.049Z,20.60
2019-01-09T18:45:36.291Z,20.58
2019-01-09T18:49:30.085Z,20.59
2019-01-09T18:52:50.678Z,20.60
2019-01-09T18:55:56.230Z,20.62
2019-01-09T18:58:59.751Z,20.62
2019-01-09T19:02:03.506Z,20.61
2019-01-09T19:05:07.169Z,20.62
2019-01-09T19:08:11.690Z,20.63
2019-01-09T19:11:15.177Z,20.61
2019-01-09T19:14:18.671Z,20.63
2019-01-09T19:17:22.196Z,20.63
2019-01-09T19:20:25.682Z,20.62
2019-01-09T19:23:29.660Z,20.61
2019-01-09T19:26:39.157Z,20.61
2019-01-09T19:29:43.788Z,20.60
2019-01-09T19:32:47.319Z,20.61
2019-01-09T19:35:51.067Z,20.60
2019-01-09T19:38:54.672Z,20.61
2019-01-09T19:41:58.195Z,20.61
2019-01-09T19:45:01.742Z,20.63
2019-01-09T19:48:05.387Z,20.63
2019-01-09T19:51:17.423Z,20.64
2019-01-09T19:54:16.072Z,20.64
2019-01-09T19:57:19.570Z,20.64
2019-01-09T20:00:24.232Z,20.65
2019-01-09T20:03:27.802Z,20.66
2019-01-09T20:06:31.342Z,20.67
2019-01-09T20:09:34.883Z,20.65
2019-01-09T20:12:38.297Z,20.67
2019-01-09T20:15:42.919Z,20.69
2019-01-09T20:18:46.655Z,20.71
2019-01-09T20:21:50.242Z,20.71
2019-01-09T20:24:53.956Z,20.73
2019-01-09T20:27:57.498Z,20.73
2019-01-09T20:31:01.048Z,20.74
2019-01-09T20:34:05.007Z,20.74
2019-01-09T20:37:08.568Z,20.75
2019-01-09T20:40:12.224Z,20.76
2019-01-09T20:43:15.797Z,20.77
2019-01-09T20:46:20.362Z,20.76
2019-01-09T20:49:23.795Z,20.77
2019-01-09T20:52:27.496Z,20.78
2019-01-09T20:55:31.096Z,20.78
2019-01-09T20:58:34.761Z,20.77
2019-01-09T21:01:38.297Z,20.75
2019-01-09T21:04:42.942Z,20.71
2019-01-09T21:07:46.643Z,20.67
2019-01-09T21:10:50.137Z,20.64
2019-01-09T21:13:53.657Z,20.65
2019-01-09T21:16:57.145Z,20.62
2019-01-09T21:20:00.654Z,20.61
2019-01-09T21:23:04.239Z,20.56
2019-01-09T21:26:07.897Z,20.56
2019-01-09T21:29:11.382Z,20.54
2019-01-09T21:32:14.853Z,20.53
2019-01-09T21:35:19.375Z,20.50
2019-01-09T21:38:22.881Z,20.48
2019-01-09T21:41:26.316Z,20.49
2019-01-09T21:44:29.792Z,20.50
2019-01-09T21:47:33.342Z,20.50
2019-01-09T21:50:36.921Z,20.52
2019-01-09T21:53:40.433Z,20.49
2019-01-09T21:56:43.917Z,20.50
2019-01-09T21:59:48.481Z,20.49
2019-01-09T22:02:51.995Z,20.50
2019-01-09T22:05:55.443Z,20.49
2019-01-09T22:08:58.940Z,20.49
2019-01-09T22:12:02.883Z,20.48
2019-01-09T22:15:08.891Z,20.47
2019-01-09T22:18:12.335Z,20.46
2019-01-09T22:21:15.785Z,20.47
2019-01-09T22:24:19.225Z,20.44
2019-01-09T22:27:22.786Z,20.45
2019-01-09T22:30:27.918Z,20.42
2019-01-09T22:33:31.437Z,20.41
2019-01-09T22:36:34.860Z,20.42
2019-01-09T22:39:38.340Z,20.41
2019-01-09T22:42:41.867Z,20.38
2019-01-09T22:45:45.330Z,20.37
2019-01-09T22:48:48.799Z,20.36
2019-01-09T22:51:52.459Z,20.34
2019-01-09T22:54:55.938Z,20.33
2019-01-09T22:57:59.447Z,20.32
2019-01-09T23:01:12.250Z,20.30
2019-01-09T23:04:15.773Z,20.30
2019-01-09T23:07:19.246Z,20.30
2019-01-09T23:10:22.859Z,20.31
2019-01-09T23:13:26.370Z,20.31
2019-01-09T23:16:29.861Z,20.31
2019-01-09T23:19:33.367Z,20.32
2019-01-09T23:22:36.865Z,20.33
2019-01-09T23:25:40.362Z,20.33
2019-01-09T23:28:43.886Z,20.33
2019-01-09T23:31:48.388Z,20.33
2019-01-09T23:34:52.939Z,20.32
2019-01-09T23:37:56.404Z,20.33
2019-01-09T23:40:59.868Z,20.32
2019-01-09T23:44:03.443Z,20.33
2019-01-09T23:47:07.993Z,20.32
2019-01-09T23:50:11.487Z,20.31
2019-01-09T23:53:18.216Z,20.31
2019-01-09T23:56:21.675Z,20.31
2019-01-09T23:59:25.243Z,20.31
